sensor_id;sensor_type;location;lat;lon;timestamp;P1;durP1;ratioP1;P2;durP2;ratioP2
8232;SDS011;4157;48.074;9.952;2023-02-28T00:01:20;6.32;;;3.20;;
8232;SDS011;4157;48.074;9.952;2023-02-28T00:03:48;7.13;;;3.13;;
8232;SDS011;4157;48.074;9.952;2023-02-28T00:06:15;6.15;;;3.25;;
8232;SDS011;4157;48.074;9.952;2023-02-28T00:08:43;4.63;;;2.80;;
8232;SDS011;4157;48.074;9.952;2023-02-28T00:11:12;5.30;;;2.53;;
8232;SDS011;4157;48.074;9.952;2023-02-28T00:13:43;5.72;;;2.97;;
8232;SDS011;4157;48.074;9.952;2023-02-28T00:16:12;5.78;;;2.88;;
8232;SDS011;4157;48.074;9.952;2023-02-28T00:18:40;5.05;;;2.50;;
8232;SDS011;4157;48.074;9.952;2023-02-28T00:21:08;6.15;;;3.40;;
8232;SDS011;4157;48.074;9.952;2023-02-28T00:23:36;6.05;;;2.97;;
8232;SDS011;4157;48.074;9.952;2023-02-28T00:26:04;6.30;;;3.00;;
8232;SDS011;4157;48.074;9.952;2023-02-28T00:28:32;5.97;;;3.17;;
8232;SDS011;4157;48.074;9.952;2023-02-28T00:31:01;6.57;;;2.80;;
8232;SDS011;4157;48.074;9.952;2023-02-28T00:33:28;5.50;;;3.25;;
8232;SDS011;4157;48.074;9.952;2023-02-28T00:36:03;7.47;;;3.03;;
8232;SDS011;4157;48.074;9.952;2023-02-28T00:40:59;4.80;;;2.80;;
8232;SDS011;4157;48.074;9.952;2023-02-28T00:43:30;4.70;;;2.80;;
8232;SDS011;4157;48.074;9.952;2023-02-28T00:45:58;5.40;;;3.15;;
8232;SDS011;4157;48.074;9.952;2023-02-28T00:48:27;4.90;;;2.70;;
8232;SDS011;4157;48.074;9.952;2023-02-28T00:50:55;8.30;;;3.30;;
8232;SDS011;4157;48.074;9.952;2023-02-28T00:53:22;7.25;;;3.10;;
8232;SDS011;4157;48.074;9.952;2023-02-28T00:55:50;5.43;;;2.92;;
8232;SDS011;4157;48.074;9.952;2023-02-28T00:58:18;6.47;;;3.03;;
8232;SDS011;4157;48.074;9.952;2023-02-28T01:00:46;5.97;;;2.88;;
8232;SDS011;4157;48.074;9.952;2023-02-28T01:03:14;4.88;;;2.92;;
8232;SDS011;4157;48.074;9.952;2023-02-28T01:05:44;5.80;;;2.80;;
8232;SDS011;4157;48.074;9.952;2023-02-28T01:08:12;6.32;;;2.95;;
8232;SDS011;4157;48.074;9.952;2023-02-28T01:10:40;7.85;;;2.72;;
8232;SDS011;4157;48.074;9.952;2023-02-28T01:13:07;6.95;;;3.40;;
8232;SDS011;4157;48.074;9.952;2023-02-28T01:15:36;7.07;;;2.83;;
8232;SDS011;4157;48.074;9.952;2023-02-28T01:18:05;5.50;;;3.00;;
8232;SDS011;4157;48.074;9.952;2023-02-28T01:20:32;5.28;;;2.83;;
8232;SDS011;4157;48.074;9.952;2023-02-28T01:23:02;6.70;;;2.97;;
8232;SDS011;4157;48.074;9.952;2023-02-28T01:25:29;6.68;;;2.92;;
8232;SDS011;4157;48.074;9.952;2023-02-28T01:27:57;6.00;;;2.95;;
8232;SDS011;4157;48.074;9.952;2023-02-28T01:30:27;4.82;;;3.05;;
8232;SDS011;4157;48.074;9.952;2023-02-28T01:32:55;6.43;;;3.05;;
8232;SDS011;4157;48.074;9.952;2023-02-28T01:35:24;6.38;;;2.92;;
8232;SDS011;4157;48.074;9.952;2023-02-28T01:37:53;7.22;;;3.13;;
8232;SDS011;4157;48.074;9.952;2023-02-28T01:40:23;5.70;;;3.10;;
8232;SDS011;4157;48.074;9.952;2023-02-28T01:42:50;5.88;;;3.00;;
8232;SDS011;4157;48.074;9.952;2023-02-28T01:45:20;5.68;;;2.92;;
8232;SDS011;4157;48.074;9.952;2023-02-28T01:47:50;5.60;;;2.80;;
8232;SDS011;4157;48.074;9.952;2023-02-28T01:50:19;5.55;;;2.80;;
8232;SDS011;4157;48.074;9.952;2023-02-28T01:52:47;8.10;;;3.35;;
8232;SDS011;4157;48.074;9.952;2023-02-28T01:55:16;6.00;;;3.28;;
8232;SDS011;4157;48.074;9.952;2023-02-28T01:57:46;6.18;;;3.35;;
8232;SDS011;4157;48.074;9.952;2023-02-28T02:00:16;6.75;;;3.22;;
8232;SDS011;4157;48.074;9.952;2023-02-28T02:02:46;7.05;;;3.60;;
8232;SDS011;4157;48.074;9.952;2023-02-28T02:05:15;6.85;;;3.08;;
8232;SDS011;4157;48.074;9.952;2023-02-28T02:07:45;6.05;;;3.22;;
8232;SDS011;4157;48.074;9.952;2023-02-28T02:10:14;9.85;;;3.53;;
8232;SDS011;4157;48.074;9.952;2023-02-28T02:12:55;6.03;;;3.47;;
8232;SDS011;4157;48.074;9.952;2023-02-28T02:15:26;6.00;;;3.60;;
8232;SDS011;4157;48.074;9.952;2023-02-28T02:17:59;6.28;;;3.33;;
8232;SDS011;4157;48.074;9.952;2023-02-28T02:20:53;8.23;;;4.22;;
8232;SDS011;4157;48.074;9.952;2023-02-28T02:23:30;7.90;;;3.38;;
8232;SDS011;4157;48.074;9.952;2023-02-28T02:26:03;7.25;;;3.55;;
8232;SDS011;4157;48.074;9.952;2023-02-28T02:28:40;6.93;;;3.40;;
8232;SDS011;4157;48.074;9.952;2023-02-28T02:31:33;7.50;;;3.45;;
8232;SDS011;4157;48.074;9.952;2023-02-28T02:34:15;6.68;;;3.45;;
8232;SDS011;4157;48.074;9.952;2023-02-28T02:36:47;6.18;;;3.72;;
8232;SDS011;4157;48.074;9.952;2023-02-28T02:39:19;6.43;;;3.38;;
8232;SDS011;4157;48.074;9.952;2023-02-28T02:41:51;7.53;;;4.40;;
8232;SDS011;4157;48.074;9.952;2023-02-28T02:44:20;7.07;;;4.05;;
8232;SDS011;4157;48.074;9.952;2023-02-28T02:46:49;9.93;;;4.03;;
8232;SDS011;4157;48.074;9.952;2023-02-28T02:49:21;6.10;;;4.18;;
8232;SDS011;4157;48.074;9.952;2023-02-28T02:51:49;7.63;;;4.28;;
8232;SDS011;4157;48.074;9.952;2023-02-28T02:54:19;8.35;;;3.75;;
8232;SDS011;4157;48.074;9.952;2023-02-28T02:56:48;6.88;;;4.00;;
8232;SDS011;4157;48.074;9.952;2023-02-28T02:59:18;7.70;;;4.00;;
8232;SDS011;4157;48.074;9.952;2023-02-28T03:01:48;7.90;;;3.78;;
8232;SDS011;4157;48.074;9.952;2023-02-28T03:04:16;6.68;;;3.92;;
8232;SDS011;4157;48.074;9.952;2023-02-28T03:06:47;7.53;;;3.90;;
8232;SDS011;4157;48.074;9.952;2023-02-28T03:09:15;8.77;;;4.57;;
8232;SDS011;4157;48.074;9.952;2023-02-28T03:11:44;7.60;;;4.55;;
8232;SDS011;4157;48.074;9.952;2023-02-28T03:14:19;8.63;;;4.63;;
8232;SDS011;4157;48.074;9.952;2023-02-28T03:16:56;13.82;;;4.85;;
8232;SDS011;4157;48.074;9.952;2023-02-28T03:21:59;7.78;;;4.20;;
8232;SDS011;4157;48.074;9.952;2023-02-28T03:24:31;7.30;;;4.88;;
8232;SDS011;4157;48.074;9.952;2023-02-28T03:27:03;10.75;;;4.85;;
8232;SDS011;4157;48.074;9.952;2023-02-28T03:29:33;7.13;;;4.35;;
8232;SDS011;4157;48.074;9.952;2023-02-28T03:32:03;6.97;;;4.40;;
8232;SDS011;4157;48.074;9.952;2023-02-28T03:34:32;8.18;;;4.30;;
8232;SDS011;4157;48.074;9.952;2023-02-28T03:37:03;7.13;;;4.47;;
8232;SDS011;4157;48.074;9.952;2023-02-28T03:39:34;8.23;;;5.05;;
8232;SDS011;4157;48.074;9.952;2023-02-28T03:42:04;10.65;;;5.25;;
8232;SDS011;4157;48.074;9.952;2023-02-28T03:44:34;8.43;;;5.35;;
8232;SDS011;4157;48.074;9.952;2023-02-28T03:47:03;9.48;;;5.28;;
8232;SDS011;4157;48.074;9.952;2023-02-28T03:49:34;7.72;;;5.15;;
8232;SDS011;4157;48.074;9.952;2023-02-28T03:52:05;7.60;;;4.57;;
8232;SDS011;4157;48.074;9.952;2023-02-28T03:54:34;8.77;;;5.28;;
8232;SDS011;4157;48.074;9.952;2023-02-28T03:57:04;9.27;;;5.05;;
8232;SDS011;4157;48.074;9.952;2023-02-28T03:59:34;9.68;;;5.65;;
8232;SDS011;4157;48.074;9.952;2023-02-28T04:02:04;9.25;;;4.97;;
8232;SDS011;4157;48.074;9.952;2023-02-28T04:04:31;9.48;;;5.60;;
8232;SDS011;4157;48.074;9.952;2023-02-28T04:07:05;8.70;;;4.97;;
8232;SDS011;4157;48.074;9.952;2023-02-28T04:09:34;7.47;;;4.85;;
8232;SDS011;4157;48.074;9.952;2023-02-28T04:12:02;9.55;;;5.45;;
8232;SDS011;4157;48.074;9.952;2023-02-28T04:14:30;8.88;;;5.47;;
8232;SDS011;4157;48.074;9.952;2023-02-28T04:16:57;10.32;;;5.75;;
8232;SDS011;4157;48.074;9.952;2023-02-28T04:19:25;8.68;;;5.22;;
8232;SDS011;4157;48.074;9.952;2023-02-28T04:21:53;8.05;;;5.35;;
8232;SDS011;4157;48.074;9.952;2023-02-28T04:24:21;11.75;;;5.53;;
8232;SDS011;4157;48.074;9.952;2023-02-28T04:26:52;10.05;;;5.38;;
8232;SDS011;4157;48.074;9.952;2023-02-28T04:29:20;10.13;;;5.50;;
8232;SDS011;4157;48.074;9.952;2023-02-28T04:31:48;9.98;;;6.00;;
8232;SDS011;4157;48.074;9.952;2023-02-28T04:34:16;8.60;;;5.07;;
8232;SDS011;4157;48.074;9.952;2023-02-28T04:36:45;10.05;;;5.30;;
8232;SDS011;4157;48.074;9.952;2023-02-28T04:39:14;9.80;;;5.32;;
8232;SDS011;4157;48.074;9.952;2023-02-28T04:41:43;9.82;;;5.50;;
8232;SDS011;4157;48.074;9.952;2023-02-28T04:44:12;9.48;;;5.72;;
8232;SDS011;4157;48.074;9.952;2023-02-28T04:46:40;8.23;;;5.30;;
8232;SDS011;4157;48.074;9.952;2023-02-28T04:49:08;10.20;;;5.20;;
8232;SDS011;4157;48.074;9.952;2023-02-28T04:51:37;10.25;;;6.22;;
8232;SDS011;4157;48.074;9.952;2023-02-28T04:54:05;9.77;;;5.75;;
8232;SDS011;4157;48.074;9.952;2023-02-28T04:56:33;10.02;;;6.13;;
8232;SDS011;4157;48.074;9.952;2023-02-28T04:59:01;9.45;;;5.85;;
8232;SDS011;4157;48.074;9.952;2023-02-28T05:01:31;9.48;;;5.97;;
8232;SDS011;4157;48.074;9.952;2023-02-28T05:04:00;11.70;;;6.05;;
8232;SDS011;4157;48.074;9.952;2023-02-28T05:06:30;10.57;;;5.43;;
8232;SDS011;4157;48.074;9.952;2023-02-28T05:08:58;10.90;;;6.82;;
8232;SDS011;4157;48.074;9.952;2023-02-28T05:11:27;10.18;;;5.90;;
8232;SDS011;4157;48.074;9.952;2023-02-28T05:13:59;13.00;;;6.35;;
8232;SDS011;4157;48.074;9.952;2023-02-28T05:16:26;8.82;;;5.85;;
8232;SDS011;4157;48.074;9.952;2023-02-28T05:18:55;10.32;;;6.43;;
8232;SDS011;4157;48.074;9.952;2023-02-28T05:21:25;10.20;;;6.32;;
8232;SDS011;4157;48.074;9.952;2023-02-28T05:23:53;8.48;;;5.57;;
8232;SDS011;4157;48.074;9.952;2023-02-28T05:26:21;11.13;;;6.50;;
8232;SDS011;4157;48.074;9.952;2023-02-28T05:28:49;11.48;;;6.40;;
8232;SDS011;4157;48.074;9.952;2023-02-28T05:31:17;10.32;;;6.25;;
8232;SDS011;4157;48.074;9.952;2023-02-28T05:33:45;11.10;;;7.38;;
8232;SDS011;4157;48.074;9.952;2023-02-28T05:36:14;11.40;;;6.65;;
8232;SDS011;4157;48.074;9.952;2023-02-28T05:38:41;13.57;;;6.72;;
8232;SDS011;4157;48.074;9.952;2023-02-28T05:41:09;10.90;;;6.32;;
8232;SDS011;4157;48.074;9.952;2023-02-28T05:43:37;11.50;;;6.75;;
8232;SDS011;4157;48.074;9.952;2023-02-28T05:46:05;11.93;;;6.93;;
8232;SDS011;4157;48.074;9.952;2023-02-28T05:48:34;14.13;;;6.72;;
8232;SDS011;4157;48.074;9.952;2023-02-28T05:51:02;17.00;;;10.82;;
8232;SDS011;4157;48.074;9.952;2023-02-28T05:53:31;15.55;;;7.18;;
8232;SDS011;4157;48.074;9.952;2023-02-28T05:55:59;13.63;;;7.63;;
8232;SDS011;4157;48.074;9.952;2023-02-28T05:58:27;11.55;;;6.78;;
8232;SDS011;4157;48.074;9.952;2023-02-28T06:00:56;12.88;;;7.60;;
8232;SDS011;4157;48.074;9.952;2023-02-28T06:03:23;14.43;;;7.47;;
8232;SDS011;4157;48.074;9.952;2023-02-28T06:05:51;10.38;;;7.07;;
8232;SDS011;4157;48.074;9.952;2023-02-28T06:08:19;11.77;;;7.07;;
8232;SDS011;4157;48.074;9.952;2023-02-28T06:10:48;11.52;;;7.30;;
8232;SDS011;4157;48.074;9.952;2023-02-28T06:13:16;13.82;;;8.32;;
8232;SDS011;4157;48.074;9.952;2023-02-28T06:15:43;13.10;;;7.68;;
8232;SDS011;4157;48.074;9.952;2023-02-28T06:18:11;14.35;;;8.00;;
8232;SDS011;4157;48.074;9.952;2023-02-28T06:20:38;12.48;;;7.53;;
8232;SDS011;4157;48.074;9.952;2023-02-28T06:23:08;13.82;;;7.68;;
8232;SDS011;4157;48.074;9.952;2023-02-28T06:25:35;13.90;;;7.35;;
8232;SDS011;4157;48.074;9.952;2023-02-28T06:28:04;12.80;;;7.53;;
8232;SDS011;4157;48.074;9.952;2023-02-28T06:30:32;15.57;;;8.45;;
8232;SDS011;4157;48.074;9.952;2023-02-28T06:33:00;14.32;;;8.73;;
8232;SDS011;4157;48.074;9.952;2023-02-28T06:35:27;15.02;;;8.57;;
8232;SDS011;4157;48.074;9.952;2023-02-28T06:37:55;13.35;;;8.02;;
8232;SDS011;4157;48.074;9.952;2023-02-28T06:40:23;13.57;;;8.63;;
8232;SDS011;4157;48.074;9.952;2023-02-28T06:42:51;13.55;;;9.30;;
8232;SDS011;4157;48.074;9.952;2023-02-28T06:45:20;15.80;;;8.32;;
8232;SDS011;4157;48.074;9.952;2023-02-28T06:47:47;12.88;;;7.78;;
8232;SDS011;4157;48.074;9.952;2023-02-28T06:50:17;14.90;;;8.95;;
8232;SDS011;4157;48.074;9.952;2023-02-28T06:52:46;15.38;;;9.30;;
8232;SDS011;4157;48.074;9.952;2023-02-28T06:55:13;15.50;;;8.70;;
8232;SDS011;4157;48.074;9.952;2023-02-28T06:57:42;15.00;;;9.43;;
8232;SDS011;4157;48.074;9.952;2023-02-28T07:00:10;15.30;;;9.15;;
8232;SDS011;4157;48.074;9.952;2023-02-28T07:02:39;14.45;;;8.10;;
8232;SDS011;4157;48.074;9.952;2023-02-28T07:05:07;14.63;;;8.52;;
8232;SDS011;4157;48.074;9.952;2023-02-28T07:07:35;15.85;;;8.60;;
8232;SDS011;4157;48.074;9.952;2023-02-28T07:10:06;16.15;;;9.38;;
8232;SDS011;4157;48.074;9.952;2023-02-28T07:12:33;13.95;;;9.07;;
8232;SDS011;4157;48.074;9.952;2023-02-28T07:15:01;15.23;;;8.88;;
8232;SDS011;4157;48.074;9.952;2023-02-28T07:17:29;14.48;;;8.65;;
8232;SDS011;4157;48.074;9.952;2023-02-28T07:19:58;12.98;;;8.60;;
8232;SDS011;4157;48.074;9.952;2023-02-28T07:22:25;13.07;;;8.80;;
8232;SDS011;4157;48.074;9.952;2023-02-28T07:24:54;14.02;;;8.55;;
8232;SDS011;4157;48.074;9.952;2023-02-28T07:27:21;17.30;;;8.57;;
8232;SDS011;4157;48.074;9.952;2023-02-28T07:29:51;15.98;;;9.02;;
8232;SDS011;4157;48.074;9.952;2023-02-28T07:32:19;14.32;;;9.88;;
8232;SDS011;4157;48.074;9.952;2023-02-28T07:34:46;16.05;;;9.48;;
8232;SDS011;4157;48.074;9.952;2023-02-28T07:37:16;16.50;;;10.10;;
8232;SDS011;4157;48.074;9.952;2023-02-28T07:39:43;14.57;;;9.27;;
8232;SDS011;4157;48.074;9.952;2023-02-28T07:42:11;13.75;;;9.25;;
8232;SDS011;4157;48.074;9.952;2023-02-28T07:44:39;16.85;;;9.77;;
8232;SDS011;4157;48.074;9.952;2023-02-28T07:47:08;16.13;;;9.88;;
8232;SDS011;4157;48.074;9.952;2023-02-28T07:49:35;16.05;;;9.32;;
8232;SDS011;4157;48.074;9.952;2023-02-28T07:52:03;16.20;;;8.60;;
8232;SDS011;4157;48.074;9.952;2023-02-28T07:54:33;15.65;;;9.65;;
8232;SDS011;4157;48.074;9.952;2023-02-28T07:57:01;14.88;;;9.43;;
8232;SDS011;4157;48.074;9.952;2023-02-28T07:59:28;17.67;;;9.63;;
8232;SDS011;4157;48.074;9.952;2023-02-28T08:01:57;15.82;;;10.40;;
8232;SDS011;4157;48.074;9.952;2023-02-28T08:04:25;16.10;;;8.90;;
8232;SDS011;4157;48.074;9.952;2023-02-28T08:06:53;16.50;;;9.80;;
8232;SDS011;4157;48.074;9.952;2023-02-28T08:09:22;14.00;;;9.52;;
8232;SDS011;4157;48.074;9.952;2023-02-28T08:11:50;20.63;;;10.75;;
8232;SDS011;4157;48.074;9.952;2023-02-28T08:14:18;14.65;;;9.07;;
8232;SDS011;4157;48.074;9.952;2023-02-28T08:16:46;16.27;;;10.10;;
8232;SDS011;4157;48.074;9.952;2023-02-28T08:19:13;14.60;;;8.82;;
8232;SDS011;4157;48.074;9.952;2023-02-28T08:21:41;15.95;;;9.55;;
8232;SDS011;4157;48.074;9.952;2023-02-28T08:24:09;13.82;;;8.70;;
8232;SDS011;4157;48.074;9.952;2023-02-28T08:26:36;16.27;;;9.35;;
8232;SDS011;4157;48.074;9.952;2023-02-28T08:29:05;16.75;;;9.48;;
8232;SDS011;4157;48.074;9.952;2023-02-28T08:31:33;15.63;;;10.05;;
8232;SDS011;4157;48.074;9.952;2023-02-28T08:34:04;19.13;;;10.57;;
8232;SDS011;4157;48.074;9.952;2023-02-28T08:36:32;15.52;;;9.93;;
8232;SDS011;4157;48.074;9.952;2023-02-28T08:38:59;16.05;;;9.45;;
8232;SDS011;4157;48.074;9.952;2023-02-28T08:41:27;20.08;;;9.70;;
8232;SDS011;4157;48.074;9.952;2023-02-28T08:43:55;15.40;;;9.80;;
8232;SDS011;4157;48.074;9.952;2023-02-28T08:46:24;15.75;;;9.52;;
8232;SDS011;4157;48.074;9.952;2023-02-28T08:48:52;15.52;;;8.95;;
8232;SDS011;4157;48.074;9.952;2023-02-28T08:51:20;16.02;;;9.95;;
8232;SDS011;4157;48.074;9.952;2023-02-28T08:53:52;13.60;;;9.10;;
8232;SDS011;4157;48.074;9.952;2023-02-28T08:56:20;18.80;;;10.05;;
8232;SDS011;4157;48.074;9.952;2023-02-28T08:58:48;15.18;;;9.90;;
8232;SDS011;4157;48.074;9.952;2023-02-28T09:01:17;18.88;;;9.65;;
8232;SDS011;4157;48.074;9.952;2023-02-28T09:03:46;17.15;;;10.02;;
8232;SDS011;4157;48.074;9.952;2023-02-28T09:06:15;16.63;;;11.15;;
8232;SDS011;4157;48.074;9.952;2023-02-28T09:08:43;17.55;;;11.18;;
8232;SDS011;4157;48.074;9.952;2023-02-28T09:11:10;17.50;;;11.32;;
8232;SDS011;4157;48.074;9.952;2023-02-28T09:13:39;18.63;;;10.77;;
8232;SDS011;4157;48.074;9.952;2023-02-28T09:16:07;18.55;;;11.02;;
8232;SDS011;4157;48.074;9.952;2023-02-28T09:18:35;16.92;;;10.02;;
8232;SDS011;4157;48.074;9.952;2023-02-28T09:21:05;17.40;;;11.15;;
8232;SDS011;4157;48.074;9.952;2023-02-28T09:23:34;15.25;;;10.40;;
8232;SDS011;4157;48.074;9.952;2023-02-28T09:26:03;18.20;;;10.80;;
8232;SDS011;4157;48.074;9.952;2023-02-28T09:28:31;15.30;;;10.60;;
8232;SDS011;4157;48.074;9.952;2023-02-28T09:30:59;17.33;;;10.82;;
8232;SDS011;4157;48.074;9.952;2023-02-28T09:33:26;15.80;;;11.27;;
8232;SDS011;4157;48.074;9.952;2023-02-28T09:35:58;20.38;;;12.38;;
8232;SDS011;4157;48.074;9.952;2023-02-28T09:38:28;19.77;;;11.30;;
8232;SDS011;4157;48.074;9.952;2023-02-28T09:40:56;18.60;;;11.18;;
8232;SDS011;4157;48.074;9.952;2023-02-28T09:43:25;18.77;;;11.88;;
8232;SDS011;4157;48.074;9.952;2023-02-28T09:45:54;18.10;;;12.05;;
8232;SDS011;4157;48.074;9.952;2023-02-28T09:48:27;19.38;;;11.73;;
8232;SDS011;4157;48.074;9.952;2023-02-28T09:50:59;19.00;;;11.43;;
8232;SDS011;4157;48.074;9.952;2023-02-28T09:53:30;18.15;;;11.45;;
8232;SDS011;4157;48.074;9.952;2023-02-28T09:56:01;22.60;;;11.02;;
8232;SDS011;4157;48.074;9.952;2023-02-28T09:58:30;17.92;;;11.30;;
8232;SDS011;4157;48.074;9.952;2023-02-28T10:00:59;20.75;;;12.05;;
8232;SDS011;4157;48.074;9.952;2023-02-28T10:03:32;16.77;;;11.25;;
8232;SDS011;4157;48.074;9.952;2023-02-28T10:06:04;19.00;;;12.25;;
8232;SDS011;4157;48.074;9.952;2023-02-28T10:08:36;18.52;;;11.48;;
8232;SDS011;4157;48.074;9.952;2023-02-28T10:11:09;20.85;;;11.63;;
8232;SDS011;4157;48.074;9.952;2023-02-28T10:13:40;19.88;;;12.15;;
8232;SDS011;4157;48.074;9.952;2023-02-28T10:16:15;17.45;;;11.43;;
8232;SDS011;4157;48.074;9.952;2023-02-28T10:18:46;18.50;;;11.98;;
8232;SDS011;4157;48.074;9.952;2023-02-28T10:21:16;17.98;;;11.93;;
8232;SDS011;4157;48.074;9.952;2023-02-28T10:23:46;19.75;;;11.55;;
8232;SDS011;4157;48.074;9.952;2023-02-28T10:26:14;19.05;;;11.70;;
8232;SDS011;4157;48.074;9.952;2023-02-28T10:28:43;18.00;;;10.85;;
8232;SDS011;4157;48.074;9.952;2023-02-28T10:33:39;21.35;;;13.68;;
8232;SDS011;4157;48.074;9.952;2023-02-28T10:36:08;19.33;;;13.30;;
8232;SDS011;4157;48.074;9.952;2023-02-28T10:38:38;19.42;;;12.65;;
8232;SDS011;4157;48.074;9.952;2023-02-28T10:41:08;20.15;;;12.38;;
8232;SDS011;4157;48.074;9.952;2023-02-28T10:43:36;25.70;;;14.60;;
8232;SDS011;4157;48.074;9.952;2023-02-28T10:46:09;19.77;;;12.35;;
8232;SDS011;4157;48.074;9.952;2023-02-28T10:48:41;19.60;;;12.30;;
8232;SDS011;4157;48.074;9.952;2023-02-28T10:51:10;18.35;;;11.65;;
8232;SDS011;4157;48.074;9.952;2023-02-28T10:53:39;21.55;;;13.32;;
8232;SDS011;4157;48.074;9.952;2023-02-28T10:56:16;21.30;;;12.95;;
8232;SDS011;4157;48.074;9.952;2023-02-28T10:58:46;20.50;;;14.32;;
8232;SDS011;4157;48.074;9.952;2023-02-28T11:01:15;21.63;;;13.25;;
8232;SDS011;4157;48.074;9.952;2023-02-28T11:03:43;18.88;;;12.52;;
8232;SDS011;4157;48.074;9.952;2023-02-28T11:06:13;18.40;;;12.43;;
8232;SDS011;4157;48.074;9.952;2023-02-28T11:08:46;19.67;;;12.98;;
8232;SDS011;4157;48.074;9.952;2023-02-28T11:11:15;17.48;;;11.32;;
8232;SDS011;4157;48.074;9.952;2023-02-28T11:13:44;22.13;;;13.98;;
8232;SDS011;4157;48.074;9.952;2023-02-28T11:16:13;19.95;;;12.30;;
8232;SDS011;4157;48.074;9.952;2023-02-28T11:18:42;21.00;;;11.82;;
8232;SDS011;4157;48.074;9.952;2023-02-28T11:21:15;21.63;;;12.38;;
8232;SDS011;4157;48.074;9.952;2023-02-28T11:23:43;18.70;;;11.88;;
8232;SDS011;4157;48.074;9.952;2023-02-28T11:26:11;21.33;;;12.70;;
8232;SDS011;4157;48.074;9.952;2023-02-28T11:28:41;22.88;;;12.73;;
8232;SDS011;4157;48.074;9.952;2023-02-28T11:31:16;18.88;;;12.20;;
8232;SDS011;4157;48.074;9.952;2023-02-28T11:33:45;19.20;;;12.30;;
8232;SDS011;4157;48.074;9.952;2023-02-28T11:36:17;20.48;;;12.20;;
8232;SDS011;4157;48.074;9.952;2023-02-28T11:38:45;21.17;;;12.57;;
8232;SDS011;4157;48.074;9.952;2023-02-28T11:41:19;20.25;;;12.45;;
8232;SDS011;4157;48.074;9.952;2023-02-28T11:43:55;19.92;;;12.85;;
8232;SDS011;4157;48.074;9.952;2023-02-28T11:46:26;20.48;;;12.32;;
8232;SDS011;4157;48.074;9.952;2023-02-28T11:49:02;17.15;;;11.40;;
8232;SDS011;4157;48.074;9.952;2023-02-28T11:51:32;20.40;;;12.75;;
8232;SDS011;4157;48.074;9.952;2023-02-28T11:54:05;18.90;;;12.30;;
8232;SDS011;4157;48.074;9.952;2023-02-28T11:56:36;18.10;;;12.38;;
8232;SDS011;4157;48.074;9.952;2023-02-28T11:59:19;19.10;;;12.45;;
8232;SDS011;4157;48.074;9.952;2023-02-28T12:02:04;18.23;;;11.38;;
8232;SDS011;4157;48.074;9.952;2023-02-28T12:04:34;18.40;;;11.65;;
8232;SDS011;4157;48.074;9.952;2023-02-28T12:07:05;19.63;;;12.32;;
8232;SDS011;4157;48.074;9.952;2023-02-28T12:09:43;19.80;;;11.73;;
8232;SDS011;4157;48.074;9.952;2023-02-28T12:12:15;22.17;;;12.52;;
8232;SDS011;4157;48.074;9.952;2023-02-28T12:14:53;18.25;;;11.60;;
8232;SDS011;4157;48.074;9.952;2023-02-28T12:17:27;18.83;;;11.85;;
8232;SDS011;4157;48.074;9.952;2023-02-28T12:19:59;21.02;;;12.25;;
8232;SDS011;4157;48.074;9.952;2023-02-28T12:22:30;18.48;;;11.40;;
8232;SDS011;4157;48.074;9.952;2023-02-28T12:25:03;19.05;;;12.55;;
8232;SDS011;4157;48.074;9.952;2023-02-28T12:27:41;17.83;;;11.77;;
8232;SDS011;4157;48.074;9.952;2023-02-28T12:30:14;17.95;;;11.80;;
8232;SDS011;4157;48.074;9.952;2023-02-28T12:32:44;17.23;;;11.85;;
8232;SDS011;4157;48.074;9.952;2023-02-28T12:35:13;17.02;;;11.95;;
8232;SDS011;4157;48.074;9.952;2023-02-28T12:37:43;16.08;;;10.60;;
8232;SDS011;4157;48.074;9.952;2023-02-28T12:40:13;14.82;;;10.52;;
8232;SDS011;4157;48.074;9.952;2023-02-28T12:42:42;15.27;;;10.55;;
8232;SDS011;4157;48.074;9.952;2023-02-28T12:45:16;14.90;;;13.27;;
8232;SDS011;4157;48.074;9.952;2023-02-28T12:47:46;14.70;;;12.32;;
8232;SDS011;4157;48.074;9.952;2023-02-28T12:50:16;16.95;;;13.52;;
8232;SDS011;4157;48.074;9.952;2023-02-28T12:52:47;17.30;;;14.00;;
8232;SDS011;4157;48.074;9.952;2023-02-28T12:55:18;15.02;;;12.68;;
8232;SDS011;4157;48.074;9.952;2023-02-28T12:57:48;16.88;;;13.68;;
8232;SDS011;4157;48.074;9.952;2023-02-28T13:00:19;14.05;;;12.48;;
8232;SDS011;4157;48.074;9.952;2023-02-28T13:02:55;14.55;;;11.98;;
8232;SDS011;4157;48.074;9.952;2023-02-28T13:05:39;13.73;;;12.00;;
8232;SDS011;4157;48.074;9.952;2023-02-28T13:08:20;15.07;;;12.40;;
8232;SDS011;4157;48.074;9.952;2023-02-28T13:10:53;14.27;;;12.40;;
8232;SDS011;4157;48.074;9.952;2023-02-28T13:13:21;14.18;;;12.68;;
8232;SDS011;4157;48.074;9.952;2023-02-28T13:16:01;12.65;;;11.35;;
8232;SDS011;4157;48.074;9.952;2023-02-28T13:18:34;13.55;;;12.05;;
8232;SDS011;4157;48.074;9.952;2023-02-28T13:21:06;13.68;;;11.90;;
8232;SDS011;4157;48.074;9.952;2023-02-28T13:23:38;13.20;;;11.80;;
8232;SDS011;4157;48.074;9.952;2023-02-28T13:26:06;15.07;;;12.52;;
8232;SDS011;4157;48.074;9.952;2023-02-28T13:31:24;13.75;;;12.23;;
8232;SDS011;4157;48.074;9.952;2023-02-28T13:36:37;13.75;;;11.40;;
8232;SDS011;4157;48.074;9.952;2023-02-28T13:39:44;14.60;;;12.15;;
8232;SDS011;4157;48.074;9.952;2023-02-28T13:42:03;16.15;;;12.75;;
8232;SDS011;4157;48.074;9.952;2023-02-28T13:47:38;13.00;;;11.10;;
8232;SDS011;4157;48.074;9.952;2023-02-28T13:50:20;19.90;;;16.33;;
8232;SDS011;4157;48.074;9.952;2023-02-28T13:52:50;14.27;;;11.85;;
8232;SDS011;4157;48.074;9.952;2023-02-28T13:55:27;13.98;;;11.82;;
8232;SDS011;4157;48.074;9.952;2023-02-28T13:57:59;14.13;;;11.48;;
8232;SDS011;4157;48.074;9.952;2023-02-28T14:00:35;13.32;;;11.93;;
8232;SDS011;4157;48.074;9.952;2023-02-28T14:03:14;12.50;;;11.00;;
8232;SDS011;4157;48.074;9.952;2023-02-28T14:05:45;13.82;;;11.65;;
8232;SDS011;4157;48.074;9.952;2023-02-28T14:08:15;13.73;;;12.07;;
8232;SDS011;4157;48.074;9.952;2023-02-28T14:10:44;13.80;;;11.55;;
8232;SDS011;4157;48.074;9.952;2023-02-28T14:13:13;14.30;;;11.50;;
8232;SDS011;4157;48.074;9.952;2023-02-28T14:15:45;13.98;;;11.35;;
8232;SDS011;4157;48.074;9.952;2023-02-28T14:18:17;12.82;;;11.43;;
8232;SDS011;4157;48.074;9.952;2023-02-28T14:20:46;13.18;;;11.18;;
8232;SDS011;4157;48.074;9.952;2023-02-28T14:23:16;14.60;;;11.48;;
8232;SDS011;4157;48.074;9.952;2023-02-28T14:25:47;14.30;;;12.80;;
8232;SDS011;4157;48.074;9.952;2023-02-28T14:28:22;16.48;;;13.38;;
8232;SDS011;4157;48.074;9.952;2023-02-28T14:30:56;12.95;;;10.63;;
8232;SDS011;4157;48.074;9.952;2023-02-28T14:33:30;12.85;;;11.00;;
8232;SDS011;4157;48.074;9.952;2023-02-28T14:36:08;13.25;;;11.45;;
8232;SDS011;4157;48.074;9.952;2023-02-28T14:38:40;12.30;;;10.73;;
8232;SDS011;4157;48.074;9.952;2023-02-28T14:41:14;12.10;;;10.75;;
8232;SDS011;4157;48.074;9.952;2023-02-28T14:46:26;14.02;;;11.93;;
8232;SDS011;4157;48.074;9.952;2023-02-28T14:48:56;13.93;;;11.57;;
8232;SDS011;4157;48.074;9.952;2023-02-28T14:51:23;17.92;;;13.77;;
8232;SDS011;4157;48.074;9.952;2023-02-28T14:53:55;13.15;;;11.75;;
8232;SDS011;4157;48.074;9.952;2023-02-28T14:56:23;13.38;;;11.45;;
8232;SDS011;4157;48.074;9.952;2023-02-28T14:58:52;12.15;;;10.85;;
8232;SDS011;4157;48.074;9.952;2023-02-28T15:01:20;14.80;;;12.07;;
8232;SDS011;4157;48.074;9.952;2023-02-28T15:03:48;13.93;;;11.90;;
8232;SDS011;4157;48.074;9.952;2023-02-28T15:06:25;14.15;;;12.00;;
8232;SDS011;4157;48.074;9.952;2023-02-28T15:09:14;12.85;;;11.07;;
8232;SDS011;4157;48.074;9.952;2023-02-28T15:11:44;12.80;;;11.05;;
8232;SDS011;4157;48.074;9.952;2023-02-28T15:14:19;12.65;;;11.32;;
8232;SDS011;4157;48.074;9.952;2023-02-28T15:16:49;11.80;;;10.40;;
8232;SDS011;4157;48.074;9.952;2023-02-28T15:19:19;12.82;;;10.52;;
8232;SDS011;4157;48.074;9.952;2023-02-28T15:21:50;12.90;;;11.40;;
8232;SDS011;4157;48.074;9.952;2023-02-28T15:24:20;14.07;;;11.38;;
8232;SDS011;4157;48.074;9.952;2023-02-28T15:26:52;14.43;;;12.18;;
8232;SDS011;4157;48.074;9.952;2023-02-28T15:29:21;14.10;;;11.68;;
8232;SDS011;4157;48.074;9.952;2023-02-28T15:31:50;13.38;;;11.32;;
8232;SDS011;4157;48.074;9.952;2023-02-28T15:34:19;13.68;;;11.95;;
8232;SDS011;4157;48.074;9.952;2023-02-28T15:36:47;14.25;;;12.43;;